Time;durP1;ratioP1;P1;durP2;ratioP2;P2;SDS_P1;SDS_P2;PMS_P1;PMS_P2;Temp;Humidity;BMP_temperature;BMP_pressure;BME280_temperature;BME280_humidity;BME280_pressure;Samples;Min_cycle;Max_cycle;Signal;HPM_P1;HPM_P2
2021/05/10 00:00:22;;;;;;;2.83;2.05;;;20.20;62.20;;;;;;5081963;28;20035;-69
2021/05/10 00:02:48;;;;;;;9.32;2.53;;;20.20;62.20;;;;;;5085467;28;20438;-68
2021/05/10 00:05:14;;;;;;;4.70;2.10;;;20.20;61.60;;;;;;5078119;28;20112;-68
2021/05/10 00:07:40;;;;;;;3.45;2.03;;;20.20;61.60;;;;;;5082794;28;20085;-68
2021/05/10 00:10:05;;;;;;;2.67;1.95;;;20.20;61.10;;;;;;5065761;28;20470;-69
2021/05/10 00:12:31;;;;;;;2.85;2.20;;;20.10;61.00;;;;;;5079855;28;20036;-71
2021/05/10 00:14:57;;;;;;;5.82;2.42;;;20.10;60.40;;;;;;5083525;28;20032;-68
2021/05/10 00:17:22;;;;;;;3.53;2.25;;;20.10;60.60;;;;;;5085909;28;20489;-69
2021/05/10 00:19:48;;;;;;;3.80;2.20;;;20.10;60.10;;;;;;5082732;28;20082;-68
2021/05/10 00:22:14;;;;;;;3.97;2.20;;;20.10;60.60;;;;;;5083246;28;20096;-68
2021/05/10 00:24:40;;;;;;;3.95;1.95;;;20.10;60.10;;;;;;5078713;28;20033;-70
2021/05/10 00:27:06;;;;;;;4.07;2.00;;;20.00;60.10;;;;;;5093655;28;20516;-68
2021/05/10 00:29:31;;;;;;;4.32;2.20;;;20.00;60.20;;;;;;5088304;28;20354;-68
2021/05/10 00:32:00;;;;;;;2.67;2.20;;;20.00;60.20;;;;;;5090190;28;20028;-68
2021/05/10 00:34:26;;;;;;;3.38;2.25;;;19.90;60.40;;;;;;5092488;28;20174;-68
2021/05/10 00:36:52;;;;;;;4.60;2.05;;;19.90;60.60;;;;;;5096298;28;20518;-68
2021/05/10 00:39:18;;;;;;;4.75;2.17;;;19.90;61.00;;;;;;5066980;28;20025;-68
2021/05/10 00:41:43;;;;;;;4.65;2.22;;;19.80;61.00;;;;;;5094125;28;20039;-68
2021/05/10 00:44:09;;;;;;;5.00;2.10;;;19.80;60.90;;;;;;5095666;28;20039;-68
2021/05/10 00:46:39;;;;;;;5.45;2.30;;;19.80;60.80;;;;;;5089093;28;20059;-69
2021/05/10 00:49:06;;;;;;;3.30;2.10;;;19.70;60.90;;;;;;5085893;28;20554;-69
2021/05/10 00:51:32;;;;;;;3.88;2.22;;;19.70;61.10;;;;;;5079440;28;20108;-68
2021/05/10 00:53:58;;;;;;;2.47;2.20;;;19.60;61.00;;;;;;5090899;28;20024;-69
2021/05/10 00:56:23;;;;;;;5.28;2.25;;;19.60;60.90;;;;;;5075518;28;20035;-69
2021/05/10 00:58:49;;;;;;;4.30;2.00;;;19.60;61.10;;;;;;5093361;28;20024;-70
2021/05/10 01:01:15;;;;;;;3.78;2.40;;;19.60;61.10;;;;;;5068330;28;20070;-69
2021/05/10 01:03:44;;;;;;;4.20;2.10;;;19.50;60.20;;;;;;5089410;28;20039;-71
2021/05/10 01:06:10;;;;;;;3.78;1.80;;;19.50;60.20;;;;;;5089723;28;20021;-71
2021/05/10 01:08:35;;;;;;;5.32;2.03;;;19.60;60.00;;;;;;5084818;28;20032;-68
2021/05/10 01:11:02;;;;;;;4.78;2.13;;;19.50;59.20;;;;;;5093711;28;20172;-68
2021/05/10 01:13:28;;;;;;;3.85;1.98;;;19.50;57.70;;;;;;5089242;28;20485;-71
2021/05/10 01:15:54;;;;;;;4.15;1.80;;;19.60;57.80;;;;;;5093307;28;20049;-68
2021/05/10 01:18:20;;;;;;;4.75;1.75;;;19.60;56.80;;;;;;5093309;28;20028;-68
2021/05/10 01:20:48;;;;;;;6.88;2.00;;;19.60;56.60;;;;;;5103668;28;20085;-71
2021/05/10 01:23:14;;;;;;;2.78;1.58;;;19.70;54.90;;;;;;5080667;28;20363;-68
2021/05/10 01:25:40;;;;;;;4.45;1.77;;;19.80;55.20;;;;;;5077725;28;20551;-68
2021/05/10 01:28:06;;;;;;;2.25;1.73;;;19.80;54.40;;;;;;5093145;28;20032;-68
2021/05/10 01:30:35;;;;;;;3.25;1.40;;;19.80;53.80;;;;;;5090240;28;20392;-68
2021/05/10 01:33:03;;;;;;;3.65;1.52;;;19.90;52.70;;;;;;5083718;28;20036;-70
2021/05/10 01:35:32;;;;;;;2.97;1.40;;;20.00;52.50;;;;;;5089786;28;20039;-71
2021/05/10 01:37:58;;;;;;;4.03;1.30;;;20.10;52.30;;;;;;5090584;28;20032;-68
2021/05/10 01:40:24;;;;;;;4.05;1.45;;;20.10;51.70;;;;;;5088810;28;20089;-68
2021/05/10 01:42:51;;;;;;;4.47;1.40;;;20.10;51.50;;;;;;5087048;28;20036;-68
2021/05/10 01:45:16;;;;;;;5.95;1.38;;;20.20;51.00;;;;;;5091610;28;20055;-68
2021/05/10 01:47:42;;;;;;;2.72;1.40;;;20.20;50.90;;;;;;5090116;28;20032;-68
2021/05/10 01:50:12;;;;;;;2.53;1.27;;;20.30;50.80;;;;;;5088179;28;20105;-69
2021/05/10 01:52:38;;;;;;;3.50;1.55;;;20.20;51.20;;;;;;5073387;28;20033;-70
2021/05/10 01:55:04;;;;;;;2.80;1.70;;;20.20;50.70;;;;;;5083496;28;20024;-68
2021/05/10 01:57:30;;;;;;;4.93;1.33;;;20.30;50.70;;;;;;5085020;28;20027;-68
2021/05/10 01:59:56;;;;;;;2.08;1.40;;;20.30;50.50;;;;;;5092889;28;20103;-69
2021/05/10 02:02:21;;;;;;;4.18;1.40;;;20.30;50.20;;;;;;5090801;28;20485;-71
2021/05/10 02:05:12;;;;;;;3.47;1.58;;;20.30;50.40;;;;;;5084297;28;20060;-69
2021/05/10 02:07:44;;;;;;;1.60;1.35;;;20.30;50.50;;;;;;5057830;28;20043;-71
2021/05/10 02:10:18;;;;;;;2.42;1.60;;;20.20;50.90;;;;;;5079129;28;20028;-68
2021/05/10 02:12:55;;;;;;;3.35;1.55;;;20.20;50.30;;;;;;5089337;28;20038;-71
2021/05/10 02:15:25;;;;;;;5.13;1.50;;;20.20;50.50;;;;;;5092497;28;20024;-68
2021/05/10 02:17:51;;;;;;;2.45;1.30;;;20.20;50.70;;;;;;5077274;28;20111;-69
2021/05/10 02:20:19;;;;;;;1.60;1.15;;;20.20;50.60;;;;;;5085239;28;20157;-69
2021/05/10 02:22:54;;;;;;;2.90;1.55;;;20.10;50.60;;;;;;5094404;28;20028;-70
2021/05/10 02:25:25;;;;;;;4.22;1.50;;;20.10;50.70;;;;;;5076329;28;20032;-68
2021/05/10 02:27:52;;;;;;;3.08;1.42;;;20.10;50.50;;;;;;5092125;28;20057;-69
2021/05/10 02:30:19;;;;;;;8.60;1.38;;;20.10;50.30;;;;;;5085114;28;20039;-68
2021/05/10 02:32:45;;;;;;;1.65;1.55;;;20.10;50.50;;;;;;5074076;28;20023;-68
2021/05/10 02:35:11;;;;;;;2.92;1.48;;;20.10;50.70;;;;;;5090946;28;20387;-68
2021/05/10 02:37:38;;;;;;;3.15;1.58;;;20.10;50.40;;;;;;5085893;28;20432;-69
2021/05/10 02:40:06;;;;;;;3.25;1.23;;;20.10;50.70;;;;;;5087336;28;20028;-70
2021/05/10 02:42:32;;;;;;;2.30;1.75;;;20.10;50.40;;;;;;5088559;28;20074;-70
2021/05/10 02:44:57;;;;;;;4.75;1.83;;;20.10;50.60;;;;;;5091909;28;20063;-69
2021/05/10 02:47:23;;;;;;;3.30;1.20;;;20.10;50.20;;;;;;5092150;28;20039;-69
2021/05/10 02:49:49;;;;;;;6.25;1.63;;;20.10;50.00;;;;;;5084958;28;20035;-70
2021/05/10 02:52:14;;;;;;;3.25;1.73;;;20.10;50.40;;;;;;5089619;28;20036;-68
2021/05/10 02:54:40;;;;;;;2.70;1.35;;;20.20;50.40;;;;;;5091701;28;20020;-69
2021/05/10 02:57:08;;;;;;;4.25;1.40;;;20.20;50.50;;;;;;5090306;28;20032;-68
2021/05/10 02:59:34;;;;;;;3.08;1.60;;;20.20;50.20;;;;;;5091513;28;20024;-70
2021/05/10 03:02:00;;;;;;;4.07;1.35;;;20.20;50.20;;;;;;5091837;28;20096;-68
2021/05/10 03:04:25;;;;;;;3.75;1.63;;;20.20;50.50;;;;;;5090482;28;20024;-68
2021/05/10 03:06:51;;;;;;;2.03;1.60;;;20.20;51.00;;;;;;5098069;28;20038;-68
2021/05/10 03:09:17;;;;;;;3.28;1.67;;;20.10;51.10;;;;;;5098354;28;20023;-68
2021/05/10 03:11:43;;;;;;;3.92;1.40;;;20.10;51.70;;;;;;5080555;28;20036;-69
2021/05/10 03:14:09;;;;;;;5.40;1.50;;;20.10;51.90;;;;;;5080349;28;20024;-73
2021/05/10 03:16:34;;;;;;;5.88;1.50;;;20.10;51.00;;;;;;5098523;28;20020;-67
2021/05/10 03:19:08;;;;;;;2.30;1.60;;;20.10;51.30;;;;;;5104028;28;20639;-69
2021/05/10 03:21:34;;;;;;;4.00;1.27;;;20.20;52.00;;;;;;5096612;28;20101;-69
2021/05/10 03:23:59;;;;;;;3.50;1.40;;;20.20;51.40;;;;;;5082190;28;20036;-69
2021/05/10 03:26:25;;;;;;;2.22;1.52;;;20.20;51.20;;;;;;5090023;28;20051;-71
2021/05/10 03:28:51;;;;;;;4.03;1.30;;;20.20;51.60;;;;;;5082756;28;20036;-69
2021/05/10 03:31:16;;;;;;;3.05;1.55;;;20.20;52.00;;;;;;5096662;28;20032;-69
2021/05/10 03:33:42;;;;;;;6.65;1.83;;;20.10;52.40;;;;;;5090313;28;20077;-69
2021/05/10 03:36:08;;;;;;;5.03;1.90;;;20.10;52.80;;;;;;5098302;28;20110;-70
2021/05/10 03:38:34;;;;;;;2.33;1.40;;;20.00;53.20;;;;;;5097931;28;20024;-70
2021/05/10 03:41:02;;;;;;;2.72;1.75;;;19.90;53.70;;;;;;5090672;28;20493;-70
2021/05/10 03:43:27;;;;;;;3.45;1.55;;;19.90;54.00;;;;;;5077276;28;20475;-72
2021/05/10 03:45:53;;;;;;;3.97;1.60;;;19.80;54.30;;;;;;5096574;28;20027;-69
2021/05/10 03:48:19;;;;;;;2.03;1.48;;;19.70;54.20;;;;;;5069327;28;20086;-69
2021/05/10 03:50:44;;;;;;;1.90;1.50;;;19.70;54.80;;;;;;5076407;28;20036;-69
2021/05/10 03:53:10;;;;;;;3.53;1.85;;;19.60;54.90;;;;;;5077611;28;20047;-71
2021/05/10 03:55:37;;;;;;;8.02;2.03;;;19.60;55.50;;;;;;5092339;28;20054;-69
2021/05/10 03:58:03;;;;;;;2.67;1.80;;;19.60;56.00;;;;;;5089977;28;20118;-70
2021/05/10 04:00:29;;;;;;;2.40;1.80;;;19.60;56.10;;;;;;5078960;28;20028;-70
2021/05/10 04:02:55;;;;;;;2.55;1.40;;;19.50;56.20;;;;;;5084959;28;20027;-70
2021/05/10 04:08:23;;;;;;;3.63;1.80;;;19.50;56.90;;;;;;5095582;28;20093;-69
2021/05/10 04:16:06;;;;;;;4.78;1.92;;;19.40;57.60;;;;;;5094661;28;20056;-69
2021/05/10 04:18:32;;;;;;;2.70;1.60;;;19.40;57.50;;;;;;5091207;28;20111;-70
2021/05/10 04:20:58;;;;;;;3.85;1.70;;;19.40;57.90;;;;;;5088112;28;20036;-69
2021/05/10 04:23:25;;;;;;;3.05;1.75;;;19.40;58.40;;;;;;5088782;28;20027;-69
2021/05/10 04:25:52;;;;;;;2.65;1.88;;;19.30;58.60;;;;;;5094605;28;20039;-69
2021/05/10 04:28:19;;;;;;;2.00;1.50;;;19.30;58.30;;;;;;5101311;28;20038;-70
2021/05/10 04:30:45;;;;;;;4.47;1.98;;;19.30;58.70;;;;;;5097125;28;20039;-69
2021/05/10 04:33:12;;;;;;;5.10;2.47;;;19.30;59.40;;;;;;5079182;28;20480;-69
2021/05/10 04:35:38;;;;;;;4.45;1.95;;;19.20;59.40;;;;;;5085546;28;20556;-70
2021/05/10 04:38:09;;;;;;;2.30;1.83;;;19.20;59.50;;;;;;5059244;28;20028;-69
2021/05/10 04:40:39;;;;;;;4.07;1.60;;;19.20;59.60;;;;;;5093035;28;20111;-69
2021/05/10 04:43:06;;;;;;;4.88;2.05;;;19.20;59.60;;;;;;5079093;28;20032;-69
2021/05/10 04:45:32;;;;;;;3.22;1.73;;;19.20;59.60;;;;;;5086060;28;20111;-69
2021/05/10 04:47:58;;;;;;;3.45;1.77;;;19.20;59.40;;;;;;5097803;28;20069;-68
2021/05/10 04:50:24;;;;;;;5.50;2.17;;;19.20;59.60;;;;;;5087917;28;20024;-69
2021/05/10 04:52:50;;;;;;;3.00;1.65;;;19.20;59.40;;;;;;5093779;28;20039;-69
2021/05/10 04:55:16;;;;;;;3.08;1.67;;;19.20;59.40;;;;;;5085246;28;20033;-69
2021/05/10 04:57:44;;;;;;;2.90;1.50;;;19.20;59.50;;;;;;5092978;28;20039;-69
2021/05/10 05:00:12;;;;;;;3.08;1.80;;;19.20;59.60;;;;;;5093969;28;20031;-68
2021/05/10 05:02:38;;;;;;;3.25;1.95;;;19.20;59.60;;;;;;5093033;28;20028;-69
2021/05/10 05:05:06;;;;;;;3.92;2.05;;;19.30;59.70;;;;;;5082230;28;20446;-69
2021/05/10 05:07:31;;;;;;;3.63;1.83;;;19.30;59.60;;;;;;5086638;28;20491;-69
2021/05/10 05:09:57;;;;;;;2.75;2.00;;;19.30;59.60;;;;;;5092512;28;20020;-68
2021/05/10 05:12:23;;;;;;;4.30;1.83;;;19.40;59.90;;;;;;5090236;28;20031;-68
2021/05/10 05:14:49;;;;;;;3.33;1.88;;;19.40;59.90;;;;;;5085577;28;20104;-69
2021/05/10 05:17:14;;;;;;;2.67;1.60;;;19.40;59.70;;;;;;5092902;28;20036;-68
2021/05/10 05:19:40;;;;;;;5.53;1.73;;;19.40;60.00;;;;;;5085922;28;20085;-68
2021/05/10 05:22:07;;;;;;;3.72;1.80;;;19.40;60.10;;;;;;5081363;28;20077;-69
2021/05/10 05:24:33;;;;;;;3.40;2.10;;;19.40;59.90;;;;;;5080587;28;20120;-70
2021/05/10 05:26:59;;;;;;;4.55;2.38;;;19.40;59.90;;;;;;5089918;28;20064;-68
2021/05/10 05:29:24;;;;;;;4.85;2.17;;;19.40;60.10;;;;;;5087730;28;20058;-68
2021/05/10 05:31:51;;;;;;;5.55;2.65;;;19.40;60.30;;;;;;5072522;28;20107;-71
2021/05/10 05:34:18;;;;;;;6.28;3.00;;;19.40;60.30;;;;;;5081417;28;20035;-69
2021/05/10 05:36:44;;;;;;;7.25;2.95;;;19.40;60.10;;;;;;5086087;28;20028;-69
2021/05/10 05:39:10;;;;;;;6.45;2.50;;;19.40;59.70;;;;;;5077402;28;20024;-69
2021/05/10 05:41:36;;;;;;;4.93;2.60;;;19.40;59.70;;;;;;5089072;28;21565;-69
2021/05/10 05:44:03;;;;;;;4.80;2.30;;;19.40;59.80;;;;;;5084892;28;20036;-68
2021/05/10 05:46:30;;;;;;;5.20;2.35;;;19.40;60.00;;;;;;5075566;28;20123;-71
2021/05/10 05:48:56;;;;;;;5.30;2.33;;;19.40;59.60;;;;;;5095290;28;20024;-69
2021/05/10 05:51:23;;;;;;;6.63;2.90;;;19.50;59.70;;;;;;5075175;28;20555;-69
2021/05/10 05:53:53;;;;;;;8.07;2.65;;;19.40;60.00;;;;;;5086363;28;20020;-68
2021/05/10 05:56:20;;;;;;;8.68;2.90;;;19.40;59.90;;;;;;5083821;28;20059;-71
2021/05/10 05:58:46;;;;;;;7.32;2.22;;;19.30;60.40;;;;;;5077453;28;20085;-69
2021/05/10 06:01:12;;;;;;;4.93;2.80;;;19.30;60.30;;;;;;5086041;28;20422;-69
2021/05/10 06:03:37;;;;;;;8.07;2.53;;;19.30;60.20;;;;;;5089045;28;20161;-71
2021/05/10 06:06:03;;;;;;;4.03;2.35;;;19.30;60.00;;;;;;5074420;28;20107;-69
2021/05/10 06:08:29;;;;;;;5.32;2.30;;;19.30;60.30;;;;;;5089637;28;20028;-70
2021/05/10 06:10:55;;;;;;;5.47;2.50;;;19.30;60.70;;;;;;5079487;28;20040;-68
2021/05/10 06:13:20;;;;;;;7.35;2.20;;;19.30;60.10;;;;;;5086596;28;20035;-70
2021/05/10 06:15:46;;;;;;;4.13;2.22;;;19.30;60.10;;;;;;5085740;28;20028;-68
2021/05/10 06:18:12;;;;;;;9.48;2.40;;;19.30;60.30;;;;;;5073786;28;20169;-69
2021/05/10 06:20:38;;;;;;;4.78;2.42;;;19.30;60.40;;;;;;5085210;28;20028;-70
2021/05/10 06:23:05;;;;;;;8.50;2.20;;;19.30;60.50;;;;;;5077262;28;20093;-70
2021/05/10 06:25:31;;;;;;;4.65;2.42;;;19.30;60.50;;;;;;5060936;28;20030;-69
2021/05/10 06:27:57;;;;;;;6.18;2.58;;;19.30;60.70;;;;;;5089446;28;20078;-69
2021/05/10 06:30:23;;;;;;;6.70;2.45;;;19.30;60.90;;;;;;5080674;28;20040;-70
2021/05/10 06:32:50;;;;;;;4.72;2.38;;;19.30;61.00;;;;;;5080165;28;20031;-70
2021/05/10 06:35:16;;;;;;;8.43;3.03;;;19.30;61.30;;;;;;5083373;28;20020;-68
2021/05/10 06:37:43;;;;;;;6.22;2.97;;;19.30;61.30;;;;;;5080068;28;20040;-70
2021/05/10 06:40:09;;;;;;;7.25;2.58;;;19.30;61.60;;;;;;5081098;28;20035;-69
2021/05/10 06:42:35;;;;;;;4.65;2.17;;;19.30;61.80;;;;;;5085936;28;20548;-72
2021/05/10 06:45:03;;;;;;;9.45;2.85;;;19.30;62.00;;;;;;5082085;28;20040;-71
2021/05/10 06:47:29;;;;;;;6.40;2.80;;;19.30;61.90;;;;;;5080104;28;20101;-71
2021/05/10 06:49:55;;;;;;;6.40;2.50;;;19.30;62.10;;;;;;5081318;28;20071;-72
2021/05/10 06:52:21;;;;;;;9.63;2.70;;;19.40;62.10;;;;;;5077862;28;20059;-69
2021/05/10 06:54:47;;;;;;;4.63;2.10;;;19.40;62.20;;;;;;5075000;28;20029;-67
2021/05/10 06:57:12;;;;;;;4.47;2.30;;;19.40;62.40;;;;;;5085743;28;20067;-70
2021/05/10 06:59:39;;;;;;;4.95;2.33;;;19.40;62.90;;;;;;5078807;28;20027;-71
2021/05/10 07:02:06;;;;;;;3.33;2.00;;;19.40;62.70;;;;;;5072357;28;20082;-71
2021/05/10 07:04:32;;;;;;;3.92;2.03;;;19.40;62.90;;;;;;5081835;28;20043;-71
2021/05/10 07:06:58;;;;;;;3.10;1.92;;;19.50;63.10;;;;;;5064322;28;20036;-71
2021/05/10 07:09:24;;;;;;;3.47;1.90;;;19.60;63.00;;;;;;5083202;28;20538;-70
2021/05/10 07:11:50;;;;;;;5.38;2.08;;;19.60;62.90;;;;;;5079382;28;20031;-71
2021/05/10 07:14:15;;;;;;;3.65;1.88;;;19.60;63.10;;;;;;5080653;28;20378;-69
2021/05/10 07:16:41;;;;;;;3.17;2.13;;;19.70;63.10;;;;;;5076446;28;20112;-71
2021/05/10 07:19:07;;;;;;;5.68;2.47;;;19.70;63.20;;;;;;5071837;28;20035;-70
2021/05/10 07:21:33;;;;;;;3.85;2.50;;;19.90;63.00;;;;;;5080268;28;20025;-70
2021/05/10 07:23:58;;;;;;;5.90;2.67;;;19.90;62.80;;;;;;5068738;28;20108;-71
2021/05/10 07:26:24;;;;;;;3.40;2.28;;;20.00;62.80;;;;;;5080122;28;20024;-70
2021/05/10 07:28:50;;;;;;;7.45;2.50;;;20.00;62.30;;;;;;5080969;28;20032;-71
2021/05/10 07:31:16;;;;;;;8.10;2.65;;;20.00;62.20;;;;;;5076344;28;20107;-71
2021/05/10 07:33:42;;;;;;;6.90;2.58;;;20.00;62.20;;;;;;5076673;28;20040;-71
2021/05/10 07:36:09;;;;;;;4.60;2.33;;;20.00;62.20;;;;;;5078735;28;20032;-71
2021/05/10 07:38:35;;;;;;;6.93;2.15;;;20.10;62.30;;;;;;5082141;28;20059;-71
2021/05/10 07:41:02;;;;;;;3.70;2.33;;;20.10;62.40;;;;;;5075488;28;20051;-72
2021/05/10 07:43:28;;;;;;;5.47;2.92;;;20.20;62.30;;;;;;5077574;28;20096;-71
2021/05/10 07:45:53;;;;;;;2.75;2.13;;;20.30;62.50;;;;;;5080049;28;20051;-70
2021/05/10 07:48:19;;;;;;;5.15;2.17;;;20.30;61.80;;;;;;5078726;28;20225;-70
2021/05/10 07:50:45;;;;;;;5.88;2.42;;;20.40;61.90;;;;;;5082384;28;20028;-70
2021/05/10 07:53:15;;;;;;;7.22;2.45;;;20.40;61.50;;;;;;5075134;28;20043;-69
2021/05/10 07:55:41;;;;;;;4.35;2.40;;;20.50;61.50;;;;;;5081820;28;20028;-69
2021/05/10 07:58:06;;;;;;;5.20;2.63;;;20.50;60.60;;;;;;5082947;28;20502;-70
2021/05/10 08:00:41;;;;;;;8.25;2.70;;;20.50;60.90;;;;;;5082738;28;20060;-69
2021/05/10 08:03:12;;;;;;;6.60;3.05;;;20.60;60.80;;;;;;5090718;28;20598;-70
2021/05/10 08:05:40;;;;;;;6.25;2.40;;;20.60;60.80;;;;;;5089833;28;20506;-70
2021/05/10 08:08:12;;;;;;;4.85;2.53;;;20.70;61.00;;;;;;5081112;28;20024;-69
2021/05/10 08:10:37;;;;;;;4.82;2.72;;;20.90;60.60;;;;;;5077900;28;20039;-71
2021/05/10 08:13:03;;;;;;;4.30;2.65;;;21.00;59.60;;;;;;5093000;28;20032;-70
2021/05/10 08:15:29;;;;;;;4.90;2.28;;;21.00;59.60;;;;;;5088614;28;20107;-71
2021/05/10 08:17:55;;;;;;;5.32;3.10;;;21.10;59.60;;;;;;5081904;28;20024;-70
2021/05/10 08:20:20;;;;;;;4.93;2.58;;;21.20;60.00;;;;;;5078362;28;20073;-70
2021/05/10 08:22:46;;;;;;;6.13;2.28;;;21.30;60.20;;;;;;5082693;28;20027;-69
2021/05/10 08:25:12;;;;;;;4.47;2.00;;;21.40;59.70;;;;;;5062118;28;20085;-70
2021/05/10 08:27:42;;;;;;;5.07;2.25;;;21.50;60.20;;;;;;5080909;28;20047;-68
2021/05/10 08:30:10;;;;;;;6.88;2.13;;;21.60;60.10;;;;;;5081063;28;20032;-69
2021/05/10 08:32:36;;;;;;;7.35;2.35;;;21.70;60.00;;;;;;5082028;28;20044;-69
2021/05/10 08:35:03;;;;;;;6.35;2.63;;;21.80;59.10;;;;;;5086786;28;20173;-70
2021/05/10 08:37:29;;;;;;;5.32;2.30;;;21.90;58.90;;;;;;5082939;28;20068;-71
2021/05/10 08:39:59;;;;;;;8.63;2.20;;;22.00;58.90;;;;;;5081961;28;20478;-68
2021/05/10 08:42:26;;;;;;;4.50;2.28;;;22.10;58.20;;;;;;5080043;28;20051;-68
2021/05/10 08:44:52;;;;;;;6.40;2.72;;;22.20;57.60;;;;;;5086897;28;20028;-70
2021/05/10 08:47:22;;;;;;;12.60;2.65;;;22.30;57.00;;;;;;5086151;28;20039;-72
2021/05/10 08:49:48;;;;;;;5.57;2.00;;;22.60;55.30;;;;;;5087589;28;20896;-69
2021/05/10 08:52:15;;;;;;;4.38;1.70;;;22.70;54.50;;;;;;5078560;28;20453;-69
2021/05/10 08:54:41;;;;;;;5.03;2.22;;;22.80;53.80;;;;;;5079224;28;20136;-72
2021/05/10 08:57:06;;;;;;;5.10;1.90;;;22.90;52.20;;;;;;5080497;28;20107;-69
2021/05/10 08:59:32;;;;;;;4.22;1.85;;;23.30;50.50;;;;;;5079064;28;20103;-70
2021/05/10 09:02:00;;;;;;;4.95;1.77;;;23.30;50.20;;;;;;5080126;28;20090;-69
2021/05/10 09:04:36;;;;;;;3.40;1.58;;;23.40;50.30;;;;;;5081475;28;20036;-71
2021/05/10 09:07:18;;;;;;;6.18;1.70;;;23.40;49.20;;;;;;5074903;28;20051;-70
2021/05/10 09:09:57;;;;;;;2.50;1.30;;;23.30;49.80;;;;;;5061161;28;20386;-69
2021/05/10 09:12:23;;;;;;;4.93;1.38;;;23.30;49.10;;;;;;5083336;28;20502;-70
2021/05/10 09:14:50;;;;;;;3.47;1.50;;;23.30;49.00;;;;;;5084892;28;20111;-71
2021/05/10 09:17:18;;;;;;;5.75;1.42;;;23.30;48.40;;;;;;5061932;28;20030;-69
2021/05/10 09:19:51;;;;;;;3.83;1.52;;;23.30;48.80;;;;;;5079228;28;20379;-70
2021/05/10 09:22:18;;;;;;;4.00;1.50;;;23.40;49.40;;;;;;5076641;28;20158;-70
2021/05/10 09:24:51;;;;;;;3.50;1.67;;;23.50;48.80;;;;;;5060449;28;20032;-71
2021/05/10 09:27:26;;;;;;;2.40;1.67;;;23.70;49.30;;;;;;5080492;28;20032;-71
2021/05/10 09:30:12;;;;;;;7.93;1.40;;;23.70;47.90;;;;;;5081628;28;20096;-71
2021/05/10 09:32:38;;;;;;;5.13;1.60;;;23.80;47.30;;;;;;5085498;28;20536;-71
2021/05/10 09:35:21;;;;;;;4.00;1.75;;;23.80;47.40;;;;;;5082485;28;20110;-70
2021/05/10 09:38:08;;;;;;;5.63;1.35;;;23.90;46.90;;;;;;5078348;28;20103;-71
2021/05/10 09:40:39;;;;;;;2.78;1.58;;;23.90;47.00;;;;;;5078254;28;20433;-70
2021/05/10 09:43:05;;;;;;;4.80;1.40;;;23.90;46.60;;;;;;5077516;28;20036;-71
2021/05/10 09:45:43;;;;;;;3.10;1.67;;;23.90;46.90;;;;;;5080396;28;20082;-70
2021/05/10 09:48:15;;;;;;;2.17;1.42;;;24.00;48.00;;;;;;5081199;28;20040;-72
2021/05/10 09:50:43;;;;;;;6.13;1.77;;;24.00;48.30;;;;;;5063079;28;20109;-70
2021/05/10 09:53:14;;;;;;;5.63;1.60;;;24.10;47.40;;;;;;5081220;28;20028;-70
2021/05/10 09:55:42;;;;;;;;;;;24.10;46.90;;;;;;5084004;28;20034;-71
2021/05/10 09:58:08;;;;;;;2.50;1.77;;;24.20;47.00;;;;;;5078659;28;19931;-70
2021/05/10 10:00:34;;;;;;;4.00;3.10;;;24.20;48.10;;;;;;5065032;28;20036;-69
2021/05/10 10:03:03;;;;;;;5.88;2.67;;;24.30;47.10;;;;;;5071929;28;20063;-71
2021/05/10 10:05:29;;;;;;;3.95;1.60;;;24.40;47.90;;;;;;5080433;28;20115;-70
2021/05/10 10:07:55;;;;;;;2.53;1.60;;;24.40;48.20;;;;;;5088490;28;20438;-70
2021/05/10 10:10:21;;;;;;;3.83;1.58;;;24.50;47.40;;;;;;5079285;28;20028;-70
2021/05/10 10:12:46;;;;;;;4.07;1.85;;;24.80;46.50;;;;;;5076191;28;20067;-71
2021/05/10 10:15:12;;;;;;;8.82;1.90;;;25.20;44.20;;;;;;5078186;28;20106;-71
2021/05/10 10:17:38;;;;;;;4.22;1.90;;;25.30;44.10;;;;;;5079198;28;20033;-70
2021/05/10 10:20:07;;;;;;;3.40;1.40;;;25.40;43.50;;;;;;5062002;28;20031;-71
2021/05/10 10:22:33;;;;;;;4.30;1.70;;;25.40;43.50;;;;;;5080117;28;20657;-70
2021/05/10 10:25:03;;;;;;;2.65;1.45;;;25.50;44.00;;;;;;5083641;28;20036;-70
2021/05/10 10:27:32;;;;;;;7.07;1.70;;;25.50;43.40;;;;;;5078750;28;20371;-70
2021/05/10 10:30:02;;;;;;;3.47;1.58;;;25.50;43.10;;;;;;5076914;28;20099;-70
2021/05/10 10:32:29;;;;;;;4.60;1.60;;;25.40;43.70;;;;;;5078587;28;20032;-70
2021/05/10 10:34:56;;;;;;;2.35;1.50;;;25.40;43.30;;;;;;5075393;28;20359;-70
2021/05/10 10:37:25;;;;;;;3.30;1.60;;;25.40;43.50;;;;;;5079455;28;20055;-70
2021/05/10 10:40:02;;;;;;;3.33;1.73;;;25.30;43.20;;;;;;5072981;28;20103;-70
2021/05/10 10:42:33;;;;;;;1.77;1.30;;;25.30;43.60;;;;;;5077781;28;20048;-70
2021/05/10 10:45:02;;;;;;;;;;;25.40;44.10;;;;;;5078210;28;20040;-71
2021/05/10 10:47:44;;;;;;;4.38;1.40;;;25.40;44.10;;;;;;5083678;28;19991;-70
2021/05/10 10:50:15;;;;;;;7.00;2.80;;;25.60;42.80;;;;;;5084924;28;20035;-70
2021/05/10 10:52:48;;;;;;;7.38;1.73;;;25.70;42.60;;;;;;5078828;28;20523;-70
2021/05/10 10:55:24;;;;;;;6.70;1.80;;;26.00;42.20;;;;;;5077617;28;20035;-71
2021/05/10 10:57:52;;;;;;;4.95;1.60;;;26.00;41.80;;;;;;5073813;28;20020;-70
2021/05/10 11:00:19;;;;;;;3.47;1.58;;;26.10;41.60;;;;;;5074115;28;20032;-70
2021/05/10 11:02:46;;;;;;;5.68;1.80;;;26.10;41.00;;;;;;5082631;28;20031;-69
2021/05/10 11:05:15;;;;;;;3.28;1.40;;;26.10;43.20;;;;;;5078638;28;20099;-69
2021/05/10 11:08:03;;;;;;;2.95;1.80;;;26.00;44.30;;;;;;5068289;28;20036;-69
2021/05/10 11:10:58;;;;;;;3.58;1.70;;;25.90;45.30;;;;;;5078769;28;20024;-70
2021/05/10 11:15:54;;;;;;;8.93;4.57;;;25.50;46.80;;;;;;5081525;28;20052;-70
2021/05/10 11:18:35;;;;;;;2.28;1.90;;;25.40;47.10;;;;;;5081046;28;20024;-70
2021/05/10 11:21:03;;;;;;;4.30;1.80;;;25.30;47.20;;;;;;5077754;28;20099;-70
2021/05/10 11:23:29;;;;;;;3.97;1.70;;;25.20;47.30;;;;;;5078085;28;20052;-72
2021/05/10 11:25:57;;;;;;;5.32;1.70;;;25.20;46.80;;;;;;5076007;28;20070;-71
2021/05/10 11:28:28;;;;;;;4.38;1.92;;;25.20;45.90;;;;;;5081352;28;20440;-71
2021/05/10 11:30:55;;;;;;;2.90;1.67;;;25.30;44.00;;;;;;5083092;28;20109;-70
2021/05/10 11:33:52;;;;;;;4.32;1.90;;;25.30;45.20;;;;;;5083784;28;20039;-69
2021/05/10 11:36:28;;;;;;;6.32;1.85;;;25.40;43.70;;;;;;5078298;28;20056;-69
2021/05/10 11:38:58;;;;;;;5.18;1.40;;;25.50;42.80;;;;;;5087710;28;20039;-70
2021/05/10 11:41:44;;;;;;;3.60;1.60;;;25.40;43.00;;;;;;5071454;28;20033;-70
2021/05/10 11:44:19;;;;;;;3.63;1.67;;;25.40;42.90;;;;;;5076779;28;20061;-69
2021/05/10 11:46:50;;;;;;;2.88;1.42;;;25.40;42.00;;;;;;5083101;28;20024;-71
2021/05/10 11:49:42;;;;;;;4.45;1.67;;;25.30;42.00;;;;;;5073210;28;20173;-71
2021/05/10 11:52:15;;;;;;;2.75;1.50;;;25.20;42.60;;;;;;5085358;28;20032;-70
2021/05/10 11:54:55;;;;;;;6.57;1.80;;;25.10;42.30;;;;;;5080248;28;20489;-71
2021/05/10 11:57:22;;;;;;;4.85;1.73;;;25.10;42.50;;;;;;5064184;28;20043;-70
2021/05/10 11:59:50;;;;;;;3.05;1.80;;;25.10;42.90;;;;;;5071340;28;20028;-69
2021/05/10 12:02:23;;;;;;;4.68;1.63;;;25.20;43.20;;;;;;5082077;28;20082;-72
2021/05/10 12:04:59;;;;;;;4.70;1.77;;;25.40;43.20;;;;;;5083274;28;20029;-71
2021/05/10 12:07:28;;;;;;;3.70;1.60;;;25.60;42.30;;;;;;5083077;28;20063;-69
2021/05/10 12:10:02;;;;;;;2.88;1.63;;;25.90;42.40;;;;;;5073539;28;20028;-70
2021/05/10 12:12:41;;;;;;;4.55;1.77;;;26.20;43.00;;;;;;5087008;28;20132;-69
2021/05/10 12:15:24;;;;;;;5.38;1.70;;;26.20;43.00;;;;;;5082915;28;20112;-69
2021/05/10 12:17:55;;;;;;;2.25;1.55;;;26.10;43.70;;;;;;5080591;28;20047;-69
2021/05/10 12:20:27;;;;;;;4.80;1.90;;;26.00;44.40;;;;;;5063451;28;20070;-72
2021/05/10 12:22:53;;;;;;;3.50;1.50;;;25.80;45.10;;;;;;5086244;28;20036;-71
2021/05/10 12:25:25;;;;;;;45.28;40.08;;;25.70;45.20;;;;;;5094258;28;20036;-69
2021/05/10 12:28:06;;;;;;;58.25;52.20;;;25.70;44.90;;;;;;5078813;28;20474;-72
2021/05/10 12:30:51;;;;;;;15.23;11.85;;;25.60;45.10;;;;;;5081266;28;20312;-69
2021/05/10 12:33:22;;;;;;;34.67;31.13;;;25.50;45.90;;;;;;5079977;28;20036;-69
2021/05/10 12:35:47;;;;;;;7.05;2.53;;;25.40;46.00;;;;;;5081157;28;20056;-70
2021/05/10 12:38:36;;;;;;;6.65;2.50;;;25.40;46.70;;;;;;5072589;28;20124;-69
2021/05/10 12:41:05;;;;;;;5.07;1.52;;;25.50;46.40;;;;;;5090519;28;20036;-72
2021/05/10 12:43:44;;;;;;;3.58;1.90;;;25.50;46.70;;;;;;5081700;28;20117;-69
2021/05/10 12:46:09;;;;;;;2.13;1.60;;;25.80;46.90;;;;;;5082379;28;20052;-67
2021/05/10 12:48:40;;;;;;;1.83;1.23;;;26.30;45.40;;;;;;5080097;28;20028;-69
2021/05/10 12:51:15;;;;;;;5.22;1.52;;;26.80;44.40;;;;;;5081390;28;20048;-67
2021/05/10 12:53:53;;;;;;;2.63;1.70;;;27.40;42.30;;;;;;5089067;28;20073;-66
2021/05/10 12:56:20;;;;;;;2.75;2.33;;;28.00;41.40;;;;;;5086409;28;20088;-67
2021/05/10 12:58:50;;;;;;;3.55;1.30;;;28.50;40.30;;;;;;5081794;28;20035;-68
2021/05/10 13:01:28;;;;;;;2.25;1.30;;;28.40;40.00;;;;;;5080985;28;20044;-68
2021/05/10 13:04:04;;;;;;;4.88;1.58;;;28.00;40.70;;;;;;5086492;28;20284;-68